Brave M — 5IM425 — position and weather

sailwx.info

Track history (hours):
 
Tides and Currents Weather Stations Pressure Air Temp Water Temp Dewpoint Dewpoint Depression Visibility Wind Speed Wind Dir Waves Ship Positions

Brave M

Last reported at 2018-Apr-18 20:07 UTC. Time now 2018-Apr-22 08:18 UTC.
Position N 35°20' E 034°43'.

Length 113 m; draft 5 m.

Type: Cargo ship. MMSI: 677032500.

Date/timePositionNaut miles runAvg speedWind from/ knotsBaromVisibWave heightAir tempDewpointWater temp
2018-Apr-18 20:07N 35°20' E 034°43'1010.1
2018-Apr-18 19:10N 35°11' E 034°37'310.2
2018-Apr-18 18:54N 35°09' E 034°36'610.5
2018-Apr-18 18:22N 35°04' E 034°33'1810.5
2018-Apr-18 16:39N 34°47' E 034°25'210.2
2018-Apr-18 16:28N 34°45' E 034°24'910.1
2018-Apr-18 15:37N 34°38' E 034°20'110.2
2018-Apr-18 15:30N 34°37' E 034°19'610.3
2018-Apr-18 14:57N 34°31' E 034°16'510.4
2018-Apr-18 14:27N 34°27' E 034°14'510.3
2018-Apr-18 14:00N 34°23' E 034°11'510.2
2018-Apr-18 13:29N 34°18' E 034°08'510.0
2018-Apr-18 13:01N 34°13' E 034°06'5 9.9
2018-Apr-18 12:30N 34°09' E 034°03'5 9.8
2018-Apr-18 12:00N 34°04' E 034°01'5 9.8
2018-Apr-18 11:30N 34°00' E 033°58'5 9.7
2018-Apr-18 11:01N 33°56' E 033°56'5 9.9
2018-Apr-18 10:31N 33°51' E 033°54'510.1
2018-Apr-18 10:00N 33°46' E 033°51'510.1
2018-Apr-18 09:30N 33°42' E 033°49'5 9.8
2018-Apr-18 09:00N 33°37' E 033°46'5 9.6
2018-Apr-18 08:30N 33°33' E 033°44'5 9.5
2018-Apr-18 08:00N 33°29' E 033°41'5 9.6
2018-Apr-18 07:30N 33°24' E 033°39'5 9.7
2018-Apr-18 07:00N 33°20' E 033°37'5 9.4
2018-Apr-18 06:30N 33°16' E 033°35'5 9.5
2018-Apr-18 06:01N 33°11' E 033°32'510.0
2018-Apr-18 05:30N 33°07' E 033°30'5 9.7
2018-Apr-18 05:00N 33°02' E 033°27'5 9.7
2018-Apr-18 04:30N 32°58' E 033°24'5 9.7
2018-Apr-18 04:01N 32°54' E 033°22'5 9.8
2018-Apr-18 03:27N 32°49' E 033°19'5 9.9
2018-Apr-18 02:59N 32°45' E 033°17'5 9.8
2018-Apr-18 02:29N 32°40' E 033°14'510.0
2018-Apr-18 02:00N 32°36' E 033°12'510.1
2018-Apr-18 01:30N 32°31' E 033°10'510.3
2018-Apr-18 01:00N 32°27' E 033°07'510.5
2018-Apr-18 00:30N 32°22' E 033°05'510.4
2018-Apr-17 23:59N 32°17' E 033°02'1110.2
2018-Apr-17 22:53N 32°07' E 032°56'410.2
2018-Apr-17 22:31N 32°03' E 032°54'510.3
2018-Apr-17 22:00N 31°59' E 032°51'510.1
2018-Apr-17 21:29N 31°54' E 032°49'5 9.9
2018-Apr-17 20:56N 31°49' E 032°46'5 9.2
2018-Apr-17 20:22N 31°45' E 032°42'4 9.5
2018-Apr-17 19:55N 31°43' E 032°38'4 9.4
2018-Apr-17 19:30N 31°41' E 032°34'12 8.9
2018-Apr-17 18:08N 31°32' E 032°23'210.0
2018-Apr-17 17:54N 31°30' E 032°24'4 9.7
2018-Apr-17 17:30N 31°26' E 032°24'5 9.8
2018-Apr-17 16:57N 31°21' E 032°23'4 9.9
2018-Apr-17 16:30N 31°17' E 032°22'5 9.1
2018-Apr-17 15:58N 31°12' E 032°20'4 7.5
2018-Apr-17 15:29N 31°08' E 032°19'4 8.2
2018-Apr-17 15:00N 31°05' E 032°19'5 9.3
2018-Apr-17 14:30N 30°60' E 032°19'5 9.3
2018-Apr-17 13:59N 30°55' E 032°19'  
Track history (hours):
 
Tides and Currents Weather Stations Pressure Air Temp Water Temp Dewpoint Dewpoint Depression Visibility Wind Speed Wind Dir Waves Ship Positions

Brave M

Last reported at 2018-Apr-18 20:07 UTC. Time now 2018-Apr-22 08:18 UTC.
Position N 35°20' E 034°43'.

Length 113 m; draft 5 m.

Type: Cargo ship. MMSI: 677032500.

Date/timePositionNaut miles runAvg speedWind from/ knotsBaromVisibWave heightAir tempDewpointWater temp
2018-Apr-18 20:07N 35°20' E 034°43'1010.1
2018-Apr-18 19:10N 35°11' E 034°37'310.2
2018-Apr-18 18:54N 35°09' E 034°36'610.5
2018-Apr-18 18:22N 35°04' E 034°33'1810.5
2018-Apr-18 16:39N 34°47' E 034°25'210.2
2018-Apr-18 16:28N 34°45' E 034°24'910.1
2018-Apr-18 15:37N 34°38' E 034°20'110.2
2018-Apr-18 15:30N 34°37' E 034°19'610.3
2018-Apr-18 14:57N 34°31' E 034°16'510.4
2018-Apr-18 14:27N 34°27' E 034°14'510.3
2018-Apr-18 14:00N 34°23' E 034°11'510.2
2018-Apr-18 13:29N 34°18' E 034°08'510.0
2018-Apr-18 13:01N 34°13' E 034°06'5 9.9
2018-Apr-18 12:30N 34°09' E 034°03'5 9.8
2018-Apr-18 12:00N 34°04' E 034°01'5 9.8
2018-Apr-18 11:30N 34°00' E 033°58'5 9.7
2018-Apr-18 11:01N 33°56' E 033°56'5 9.9
2018-Apr-18 10:31N 33°51' E 033°54'510.1
2018-Apr-18 10:00N 33°46' E 033°51'510.1
2018-Apr-18 09:30N 33°42' E 033°49'5 9.8
2018-Apr-18 09:00N 33°37' E 033°46'5 9.6
2018-Apr-18 08:30N 33°33' E 033°44'5 9.5
2018-Apr-18 08:00N 33°29' E 033°41'5 9.6
2018-Apr-18 07:30N 33°24' E 033°39'5 9.7
2018-Apr-18 07:00N 33°20' E 033°37'5 9.4
2018-Apr-18 06:30N 33°16' E 033°35'5 9.5
2018-Apr-18 06:01N 33°11' E 033°32'510.0
2018-Apr-18 05:30N 33°07' E 033°30'5 9.7
2018-Apr-18 05:00N 33°02' E 033°27'5 9.7
2018-Apr-18 04:30N 32°58' E 033°24'5 9.7
2018-Apr-18 04:01N 32°54' E 033°22'5 9.8
2018-Apr-18 03:27N 32°49' E 033°19'5 9.9
2018-Apr-18 02:59N 32°45' E 033°17'5 9.8
2018-Apr-18 02:29N 32°40' E 033°14'510.0
2018-Apr-18 02:00N 32°36' E 033°12'510.1
2018-Apr-18 01:30N 32°31' E 033°10'510.3
2018-Apr-18 01:00N 32°27' E 033°07'510.5
2018-Apr-18 00:30N 32°22' E 033°05'510.4
2018-Apr-17 23:59N 32°17' E 033°02'1110.2
2018-Apr-17 22:53N 32°07' E 032°56'410.2
2018-Apr-17 22:31N 32°03' E 032°54'510.3
2018-Apr-17 22:00N 31°59' E 032°51'510.1
2018-Apr-17 21:29N 31°54' E 032°49'5 9.9
2018-Apr-17 20:56N 31°49' E 032°46'5 9.2
2018-Apr-17 20:22N 31°45' E 032°42'4 9.5
2018-Apr-17 19:55N 31°43' E 032°38'4 9.4
2018-Apr-17 19:30N 31°41' E 032°34'12 8.9
2018-Apr-17 18:08N 31°32' E 032°23'210.0
2018-Apr-17 17:54N 31°30' E 032°24'4 9.7
2018-Apr-17 17:30N 31°26' E 032°24'5 9.8
2018-Apr-17 16:57N 31°21' E 032°23'4 9.9
2018-Apr-17 16:30N 31°17' E 032°22'5 9.1
2018-Apr-17 15:58N 31°12' E 032°20'4 7.5
2018-Apr-17 15:29N 31°08' E 032°19'4 8.2
2018-Apr-17 15:00N 31°05' E 032°19'5 9.3
2018-Apr-17 14:30N 30°60' E 032°19'5 9.3
2018-Apr-17 13:59N 30°55' E 032°19'  

Dump ship's entire track history